Time;durP1;ratioP1;P1;durP2;ratioP2;P2;SDS_P1;SDS_P2;PMS_P1;PMS_P2;Temp;Humidity;BMP_temperature;BMP_pressure;BME280_temperature;BME280_humidity;BME280_pressure;Samples;Min_cycle;Max_cycle;Signal;HPM_P1;HPM_P2
2023/10/04 00:00:49;;;;;;;;;;;;;;;16.58;42.34;100340.81;5072012;28;20389;-78
2023/10/04 00:03:14;;;;;;;;;;;;;;;16.60;42.57;100336.09;5071759;28;19927;-78
2023/10/04 00:05:41;;;;;;;;;;;;;;;16.59;42.17;100336.31;5071825;28;20388;-78
2023/10/04 00:08:06;;;;;;;;;;;;;;;16.59;42.68;100338.97;5070355;28;19913;-78
2023/10/04 00:10:32;;;;;;;;;;;;;;;16.59;43.20;100328.31;5071803;28;19920;-78
2023/10/04 00:12:58;;;;;;;;;;;;;;;16.53;42.71;100333.41;5071884;28;19969;-78
2023/10/04 00:15:26;;;;;;;;;;;;;;;16.48;42.68;100341.19;5071962;28;19916;-78
2023/10/04 00:17:52;;;;;;;;;;;;;;;16.37;43.51;100333.72;5072018;28;19920;-79
2023/10/04 00:20:18;;;;;;;;;;;;;;;16.33;43.18;100328.97;5070403;28;20308;-78
2023/10/04 00:22:46;;;;;;;;;;;;;;;16.27;43.10;100325.25;5071800;28;19999;-79
2023/10/04 00:25:12;;;;;;;;;;;;;;;16.25;43.64;100318.47;5070261;28;20338;-78
2023/10/04 00:27:43;;;;;;;;;;;;;;;16.19;42.51;100325.41;5071629;28;19912;-79
2023/10/04 00:30:16;;;;;;;;;;;;;;;16.02;43.11;100322.22;5071669;28;19912;-78
2023/10/04 00:32:42;;;;;;;;;;;;;;;15.76;44.07;100324.69;5070326;28;19912;-78
2023/10/04 00:35:19;;;;;;;;;;;;;;;15.74;43.44;100319.53;5071656;28;19920;-78
2023/10/04 00:37:55;;;;;;;;;;;;;;;15.76;43.84;100322.84;5071551;28;19917;-79
2023/10/04 00:40:23;;;;;;;;;;;;;;;15.76;43.47;100320.16;5071623;28;19913;-78
2023/10/04 00:42:49;;;;;;;;;;;;;;;15.66;43.63;100325.00;5071978;28;19913;-79
2023/10/04 00:45:15;;;;;;;;;;;;;;;15.61;43.66;100324.75;5070226;28;19917;-78
2023/10/04 00:47:48;;;;;;;;;;;;;;;15.71;43.24;100319.09;5071534;28;20000;-78
2023/10/04 00:50:17;;;;;;;;;;;;;;;15.69;42.90;100321.97;5071380;28;19913;-78
2023/10/04 00:53:03;;;;;;;;;;;;;;;15.63;44.03;100325.38;5071521;28;19928;-78
2023/10/04 00:55:29;;;;;;;;;;;;;;;15.64;43.72;100319.06;5071290;28;19979;-78
2023/10/04 00:57:56;;;;;;;;;;;;;;;15.61;44.02;100319.44;5071696;28;19966;-78
2023/10/04 01:00:21;;;;;;;;;;;;;;;15.58;45.04;100328.59;5070264;28;20009;-78
2023/10/04 01:02:47;;;;;;;;;;;;;;;15.61;44.31;100322.09;5073708;28;20356;-79
2023/10/04 01:05:14;;;;;;;;;;;;;;;15.62;44.33;100322.91;5075249;28;19917;-78
2023/10/04 01:07:39;;;;;;;;;;;;;;;15.58;44.88;100331.25;5075428;28;20304;-78
2023/10/04 01:10:15;;;;;;;;;;;;;;;15.57;44.88;100316.28;5075185;28;19912;-79
2023/10/04 01:12:42;;;;;;;;;;;;;;;15.58;44.94;100325.09;5075062;28;19913;-78
2023/10/04 01:15:29;;;;;;;;;;;;;;;15.62;45.09;100318.41;5074963;28;19912;-78
2023/10/04 01:17:56;;;;;;;;;;;;;;;15.68;43.83;100322.16;5074961;28;19919;-79
2023/10/04 01:20:24;;;;;;;;;;;;;;;15.72;44.01;100329.56;5074788;28;19913;-78
2023/10/04 01:22:50;;;;;;;;;;;;;;;15.73;44.95;100319.72;5074993;28;19913;-78
2023/10/04 01:25:16;;;;;;;;;;;;;;;15.71;44.55;100325.25;5074979;28;19916;-78
2023/10/04 01:27:44;;;;;;;;;;;;;;;15.68;45.66;100320.31;5074707;28;19912;-79
2023/10/04 01:30:13;;;;;;;;;;;;;;;15.72;44.81;100318.09;5073490;28;19916;-78
2023/10/04 01:32:38;;;;;;;;;;;;;;;15.77;44.22;100318.34;5073260;28;19912;-78
2023/10/04 01:35:08;;;;;;;;;;;;;;;15.76;44.61;100325.50;5074677;28;19934;-78
2023/10/04 01:37:35;;;;;;;;;;;;;;;15.82;43.75;100319.41;5074743;28;19912;-78
2023/10/04 01:40:05;;;;;;;;;;;;;;;15.87;44.29;100316.97;5074641;28;20309;-78
2023/10/04 01:42:30;;;;;;;;;;;;;;;15.91;44.01;100314.75;5074291;28;19947;-78
2023/10/04 01:44:55;;;;;;;;;;;;;;;15.93;43.74;100317.22;5074394;28;19959;-78
2023/10/04 01:47:21;;;;;;;;;;;;;;;15.95;43.94;100312.53;5074232;28;20396;-78
2023/10/04 01:49:46;;;;;;;;;;;;;;;15.89;44.78;100312.28;5074436;28;20058;-78
2023/10/04 01:52:13;;;;;;;;;;;;;;;15.77;44.58;100313.84;5074292;28;19948;-78
2023/10/04 01:54:38;;;;;;;;;;;;;;;15.68;44.85;100306.19;5074134;28;19919;-78
2023/10/04 01:57:05;;;;;;;;;;;;;;;15.58;44.82;100311.81;5074117;28;19912;-78
2023/10/04 01:59:31;;;;;;;;;;;;;;;15.50;44.41;100303.91;5074011;28;20293;-78
2023/10/04 02:01:57;;;;;;;;;;;;;;;15.40;45.26;100301.56;5073750;28;19912;-78
2023/10/04 02:04:23;;;;;;;;;;;;;;;15.32;45.02;100304.38;5073697;28;19916;-78
2023/10/04 02:06:48;;;;;;;;;;;;;;;15.20;45.89;100301.38;5073889;28;20282;-78
2023/10/04 02:09:16;;;;;;;;;;;;;;;15.11;45.65;100302.53;5073864;28;19919;-78
2023/10/04 02:11:41;;;;;;;;;;;;;;;15.09;46.17;100307.22;5074121;28;19991;-78
2023/10/04 02:14:07;;;;;;;;;;;;;;;14.97;45.35;100308.72;5073444;28;19940;-78
2023/10/04 02:16:34;;;;;;;;;;;;;;;14.84;45.59;100311.19;5072454;28;19995;-77
2023/10/04 02:19:01;;;;;;;;;;;;;;;14.83;45.78;100309.53;5072448;28;19912;-80
2023/10/04 02:21:26;;;;;;;;;;;;;;;14.78;45.73;100306.63;5073888;28;19935;-78
2023/10/04 02:23:53;;;;;;;;;;;;;;;14.76;45.25;100303.31;5073599;28;19916;-79
2023/10/04 02:26:22;;;;;;;;;;;;;;;14.72;45.86;100310.03;5072208;28;19966;-80
2023/10/04 02:28:48;;;;;;;;;;;;;;;14.69;46.13;100308.56;5073592;28;20338;-79
2023/10/04 02:31:14;;;;;;;;;;;;;;;14.69;46.50;100308.56;5073526;28;19913;-79
2023/10/04 02:33:39;;;;;;;;;;;;;;;14.62;45.62;100308.47;5072107;28;20010;-78
2023/10/04 02:36:07;;;;;;;;;;;;;;;14.62;46.45;100308.47;5073632;28;20416;-79
2023/10/04 02:38:33;;;;;;;;;;;;;;;14.52;45.83;100307.13;5072116;28;19919;-79
2023/10/04 02:40:59;;;;;;;;;;;;;;;14.55;45.54;100304.09;5073468;28;19948;-78
2023/10/04 02:43:25;;;;;;;;;;;;;;;14.54;45.77;100311.25;5073451;28;20459;-78
2023/10/04 02:45:52;;;;;;;;;;;;;;;14.51;45.82;100316.94;5073633;28;20298;-78
2023/10/04 02:48:18;;;;;;;;;;;;;;;14.54;46.11;100313.06;5071935;28;20400;-79
2023/10/04 02:50:44;;;;;;;;;;;;;;;14.53;46.41;100320.22;5073153;28;19926;-78
2023/10/04 02:53:14;;;;;;;;;;;;;;;14.49;46.54;100318.94;5071940;28;19912;-79
2023/10/04 02:55:39;;;;;;;;;;;;;;;14.45;47.30;100322.97;5073255;28;19913;-79
2023/10/04 02:58:06;;;;;;;;;;;;;;;14.45;46.74;100315.00;5073281;28;20019;-79
2023/10/04 03:00:33;;;;;;;;;;;;;;;14.58;46.72;100315.19;5073102;28;19912;-79
2023/10/04 03:02:58;;;;;;;;;;;;;;;14.56;46.11;100305.75;5072762;28;19964;-78
2023/10/04 03:05:28;;;;;;;;;;;;;;;14.52;46.46;100307.94;5073218;28;19952;-78
2023/10/04 03:07:54;;;;;;;;;;;;;;;14.50;46.44;100314.47;5072914;28;19970;-79
2023/10/04 03:10:25;;;;;;;;;;;;;;;14.49;46.18;100312.81;5072580;28;20007;-79
2023/10/04 03:12:56;;;;;;;;;;;;;;;14.44;47.13;100309.88;5072676;28;19944;-79
2023/10/04 03:15:23;;;;;;;;;;;;;;;14.41;45.99;100313.69;5072729;28;19965;-78
2023/10/04 03:17:50;;;;;;;;;;;;;;;14.40;46.62;100301.41;5072783;28;20435;-79
2023/10/04 03:20:20;;;;;;;;;;;;;;;14.40;45.95;100312.06;5072852;28;19966;-78
2023/10/04 03:22:49;;;;;;;;;;;;;;;14.34;47.04;100304.00;5072302;28;20316;-78
2023/10/04 03:25:17;;;;;;;;;;;;;;;14.32;46.44;100302.34;5071617;28;19913;-78
2023/10/04 03:27:46;;;;;;;;;;;;;;;14.32;46.29;100306.84;5071360;28;20358;-78
2023/10/04 03:30:15;;;;;;;;;;;;;;;14.27;47.06;100298.59;5072716;28;19919;-78
2023/10/04 03:32:44;;;;;;;;;;;;;;;14.30;45.98;100307.00;5072516;28;19919;-78
2023/10/04 03:35:14;;;;;;;;;;;;;;;14.31;46.42;100302.53;5072491;28;19966;-78
2023/10/04 03:37:44;;;;;;;;;;;;;;;14.28;46.84;100305.56;5072565;28;19912;-79
2023/10/04 03:40:15;;;;;;;;;;;;;;;14.19;46.96;100310.13;5072840;28;19944;-78
2023/10/04 03:42:41;;;;;;;;;;;;;;;14.14;46.38;100303.72;5073722;28;19916;-78
2023/10/04 03:45:07;;;;;;;;;;;;;;;14.10;46.51;100303.22;5074110;28;19913;-79
2023/10/04 03:47:33;;;;;;;;;;;;;;;14.08;46.95;100305.22;5072269;28;19923;-79
2023/10/04 03:49:58;;;;;;;;;;;;;;;14.02;47.39;100295.34;5072184;28;19916;-79
2023/10/04 03:52:25;;;;;;;;;;;;;;;13.99;46.87;100301.84;5072501;28;19950;-79
2023/10/04 03:54:50;;;;;;;;;;;;;;;13.98;46.45;100296.72;5072044;28;20571;-79
2023/10/04 03:57:16;;;;;;;;;;;;;;;13.95;46.14;100292.59;5072486;28;19952;-78
2023/10/04 03:59:44;;;;;;;;;;;;;;;13.90;47.46;100292.31;5072184;28;19916;-79
2023/10/04 04:02:11;;;;;;;;;;;;;;;13.88;46.80;100283.69;5070841;28;19923;-78
2023/10/04 04:04:36;;;;;;;;;;;;;;;13.93;46.61;100291.13;5071924;28;19999;-78
2023/10/04 04:07:02;;;;;;;;;;;;;;;13.78;47.68;100296.41;5072271;28;19955;-78
2023/10/04 04:09:28;;;;;;;;;;;;;;;13.65;48.39;100293.53;5072209;28;19920;-78
2023/10/04 04:11:53;;;;;;;;;;;;;;;13.56;47.23;100290.13;5072018;28;19962;-78
2023/10/04 04:14:18;;;;;;;;;;;;;;;13.59;47.01;100295.09;5072029;28;19928;-78
2023/10/04 04:16:43;;;;;;;;;;;;;;;13.56;47.99;100297.28;5071900;28;19912;-78
2023/10/04 04:19:09;;;;;;;;;;;;;;;13.58;47.71;100297.91;5071957;28;20427;-79
2023/10/04 04:21:34;;;;;;;;;;;;;;;13.61;47.98;100306.34;5070851;28;19912;-79
2023/10/04 04:23:59;;;;;;;;;;;;;;;13.65;47.40;100304.16;5071678;28;20430;-79
2023/10/04 04:26:27;;;;;;;;;;;;;;;13.68;47.88;100304.63;5071812;28;19920;-79
2023/10/04 04:28:52;;;;;;;;;;;;;;;13.68;48.13;100306.47;5071882;28;19913;-78
2023/10/04 04:31:20;;;;;;;;;;;;;;;13.70;47.84;100307.09;5071709;28;20407;-79
2023/10/04 04:33:45;;;;;;;;;;;;;;;13.69;48.02;100305.44;5070444;28;20316;-79
2023/10/04 04:36:17;;;;;;;;;;;;;;;13.70;47.32;100306.28;5073134;28;19913;-79
2023/10/04 04:38:43;;;;;;;;;;;;;;;13.68;47.62;100306.47;5076090;28;20007;-78
2023/10/04 04:41:12;;;;;;;;;;;;;;;13.69;47.71;100308.09;5075948;28;19959;-79
2023/10/04 04:43:38;;;;;;;;;;;;;;;13.74;47.36;100315.53;5075709;28;20019;-78
2023/10/04 04:46:08;;;;;;;;;;;;;;;13.74;47.43;100313.69;5075812;28;19955;-79
2023/10/04 04:48:36;;;;;;;;;;;;;;;13.72;48.12;100312.22;5075897;28;19906;-79
2023/10/04 04:51:06;;;;;;;;;;;;;;;13.74;48.21;100323.50;5077593;28;19952;-78
2023/10/04 04:53:32;;;;;;;;;;;;;;;13.72;47.69;100323.66;5075795;28;20381;-78
2023/10/04 04:55:58;;;;;;;;;;;;;;;13.74;48.18;100318.19;5075685;28;19966;-78
2023/10/04 04:58:23;;;;;;;;;;;;;;;13.73;48.40;100321.84;5075629;28;19944;-77
2023/10/04 05:00:55;;;;;;;;;;;;;;;13.78;48.24;100319.47;5075747;28;20009;-79
2023/10/04 05:03:20;;;;;;;;;;;;;;;13.79;47.92;100314.00;5075350;28;19921;-78
2023/10/04 05:05:49;;;;;;;;;;;;;;;13.80;48.06;100318.28;5075742;28;19924;-78
2023/10/04 05:08:14;;;;;;;;;;;;;;;13.86;47.14;100322.06;5075517;28;19919;-77
2023/10/04 05:10:40;;;;;;;;;;;;;;;13.90;47.22;100318.84;5075037;28;19955;-77
2023/10/04 05:13:13;;;;;;;;;;;;;;;13.97;47.89;100326.94;5074766;28;19912;-77
2023/10/04 05:15:39;;;;;;;;;;;;;;;14.03;47.37;100326.19;5074644;28;20432;-77
2023/10/04 05:18:05;;;;;;;;;;;;;;;14.10;47.28;100331.59;5074817;28;19909;-78
2023/10/04 05:20:32;;;;;;;;;;;;;;;14.19;47.18;100334.03;5073424;28;20377;-78
2023/10/04 05:23:00;;;;;;;;;;;;;;;14.25;47.45;100332.47;5073506;28;19956;-78
2023/10/04 05:25:29;;;;;;;;;;;;;;;14.24;47.16;100328.16;5074663;28;19966;-80
2023/10/04 05:28:09;;;;;;;;;;;;;;;14.23;47.61;100324.69;5074558;28;19917;-78
2023/10/04 05:30:35;;;;;;;;;;;;;;;14.25;46.94;100330.66;5074509;28;20367;-79
2023/10/04 05:33:01;;;;;;;;;;;;;;;14.34;47.00;100335.88;5074552;28;20385;-79
2023/10/04 05:35:26;;;;;;;;;;;;;;;14.39;46.78;100338.81;5074825;28;19919;-79
2023/10/04 05:37:52;;;;;;;;;;;;;;;14.45;46.81;100346.91;5073292;28;19948;-77
2023/10/04 05:40:24;;;;;;;;;;;;;;;14.51;47.09;100340.03;5074816;28;19913;-79
2023/10/04 05:42:50;;;;;;;;;;;;;;;14.56;46.84;100349.09;5073668;28;19924;-79
2023/10/04 05:45:16;;;;;;;;;;;;;;;14.61;47.05;100352.03;5074601;28;19913;-79
2023/10/04 05:47:41;;;;;;;;;;;;;;;14.66;46.77;100351.47;5073688;28;20023;-78
2023/10/04 05:50:13;;;;;;;;;;;;;;;14.71;47.79;100359.72;5074396;28;20012;-79
2023/10/04 05:52:39;;;;;;;;;;;;;;;14.78;46.92;100360.63;5074528;28;19917;-79
2023/10/04 05:55:08;;;;;;;;;;;;;;;14.81;46.60;100348.78;5074793;28;19920;-79
2023/10/04 05:57:33;;;;;;;;;;;;;;;14.89;46.20;100362.00;5074594;28;19913;-78
2023/10/04 05:59:58;;;;;;;;;;;;;;;14.97;46.43;100353.94;5074420;28;19919;-79
2023/10/04 06:02:24;;;;;;;;;;;;;;;15.07;46.87;100370.41;5074127;28;20326;-78
2023/10/04 06:04:49;;;;;;;;;;;;;;;15.13;46.32;100359.03;5074159;28;19970;-78
2023/10/04 06:07:14;;;;;;;;;;;;;;;15.23;46.57;100364.84;5074694;28;20369;-79
2023/10/04 06:09:44;;;;;;;;;;;;;;;15.30;46.82;100366.75;5073038;28;19919;-78
2023/10/04 06:12:09;;;;;;;;;;;;;;;15.41;46.93;100374.25;5074385;28;20468;-78
2023/10/04 06:14:36;;;;;;;;;;;;;;;15.50;46.36;100375.78;5074267;28;19947;-79
2023/10/04 06:17:02;;;;;;;;;;;;;;;15.57;45.79;100372.19;5074201;28;19999;-78
2023/10/04 06:19:28;;;;;;;;;;;;;;;15.67;46.70;100369.25;5072478;28;20380;-78
2023/10/04 06:21:53;;;;;;;;;;;;;;;15.74;46.37;100370.13;5074145;28;19912;-78
2023/10/04 06:24:19;;;;;;;;;;;;;;;15.83;45.85;100374.31;5073889;28;20294;-78
2023/10/04 06:26:44;;;;;;;;;;;;;;;15.92;45.78;100374.16;5073534;28;20385;-78
2023/10/04 06:29:09;;;;;;;;;;;;;;;15.99;46.40;100372.38;5070747;28;19917;-78
2023/10/04 06:31:34;;;;;;;;;;;;;;;16.11;46.18;100374.31;5073180;28;20381;-78
2023/10/04 06:34:01;;;;;;;;;;;;;;;16.14;45.86;100375.78;5068633;28;20477;-79
2023/10/04 06:36:29;;;;;;;;;;;;;;;16.21;45.77;100374.81;5073320;28;19913;-79
2023/10/04 06:38:54;;;;;;;;;;;;;;;16.21;47.30;100376.66;5069973;28;19924;-79
2023/10/04 06:41:24;;;;;;;;;;;;;;;16.24;46.52;100370.09;5072396;28;19916;-78
2023/10/04 06:43:49;;;;;;;;;;;;;;;16.29;46.30;100365.84;5069151;28;19935;-78
2023/10/04 06:46:14;;;;;;;;;;;;;;;16.42;45.78;100359.81;5071912;28;19920;-78
2023/10/04 06:48:40;;;;;;;;;;;;;;;16.53;45.74;100352.06;5069768;28;19965;-78
2023/10/04 06:51:05;;;;;;;;;;;;;;;16.60;45.67;100354.78;5072796;28;19989;-78
2023/10/04 06:53:30;;;;;;;;;;;;;;;16.68;46.06;100346.63;5071905;28;19919;-78
2023/10/04 06:55:57;;;;;;;;;;;;;;;16.70;46.62;100351.78;5073296;28;20308;-78
2023/10/04 06:58:22;;;;;;;;;;;;;;;16.74;45.43;100353.03;5073131;28;19919;-78
2023/10/04 07:00:47;;;;;;;;;;;;;;;16.75;46.51;100352.00;5069732;28;19916;-78
2023/10/04 07:03:14;;;;;;;;;;;;;;;16.83;46.10;100360.66;5068647;28;19931;-78
2023/10/04 07:05:40;;;;;;;;;;;;;;;16.95;46.06;100352.91;5070505;28;19921;-79
2023/10/04 07:08:06;;;;;;;;;;;;;;;17.07;46.62;100359.31;5070921;28;19913;-79
2023/10/04 07:10:32;;;;;;;;;;;;;;;17.15;46.17;100350.34;5069940;28;19913;-79
2023/10/04 07:12:58;;;;;;;;;;;;;;;17.23;45.74;100347.47;5064542;28;19924;-79
2023/10/04 07:15:36;;;;;;;;;;;;;;;17.32;45.46;100350.78;5053920;28;19917;-77
2023/10/04 07:18:10;;;;;;;;;;;;;;;17.45;45.59;100351.63;5052625;28;19916;-77
2023/10/04 07:20:35;;;;;;;;;;;;;;;17.56;44.55;100336.84;5053117;28;19916;-78
2023/10/04 07:23:03;;;;;;;;;;;;;;;17.60;45.43;100342.59;5054260;28;19920;-78
2023/10/04 07:25:30;;;;;;;;;;;;;;;17.67;44.70;100341.63;5067659;28;19924;-77
2023/10/04 07:27:56;;;;;;;;;;;;;;;17.76;44.67;100340.38;5071431;28;20470;-78
2023/10/04 07:30:24;;;;;;;;;;;;;;;17.86;44.26;100337.34;5057904;28;19995;-78
2023/10/04 07:32:50;;;;;;;;;;;;;;;17.92;44.03;100333.84;5072440;28;20070;-78
2023/10/04 07:35:18;;;;;;;;;;;;;;;18.03;44.40;100332.38;5071201;28;19940;-77
2023/10/04 07:37:44;;;;;;;;;;;;;;;18.16;43.94;100334.22;5053261;28;19917;-77
2023/10/04 07:40:13;;;;;;;;;;;;;;;18.26;43.77;100331.94;5067882;28;19916;-78
2023/10/04 07:42:38;;;;;;;;;;;;;;;18.31;44.09;100330.28;5059956;28;19948;-78
2023/10/04 07:45:05;;;;;;;;;;;;;;;18.42;43.76;100334.97;5067972;28;19967;-78
2023/10/04 07:47:31;;;;;;;;;;;;;;;18.53;43.65;100333.50;5066518;28;19925;-78
2023/10/04 07:49:56;;;;;;;;;;;;;;;18.66;42.75;100338.06;5070609;28;19912;-77
2023/10/04 07:52:21;;;;;;;;;;;;;;;18.75;42.49;100336.78;5071195;28;19935;-78
2023/10/04 07:54:47;;;;;;;;;;;;;;;18.78;42.69;100330.19;5070302;28;19923;-78
2023/10/04 07:57:12;;;;;;;;;;;;;;;18.86;42.64;100322.75;5070377;28;19909;-78
2023/10/04 07:59:38;;;;;;;;;;;;;;;18.96;42.54;100324.97;5066451;28;19951;-77
2023/10/04 08:02:03;;;;;;;;;;;;;;;19.03;42.32;100323.91;5054898;28;19924;-78
2023/10/04 08:04:29;;;;;;;;;;;;;;;19.12;41.89;100321.78;5065277;28;20444;-78
2023/10/04 08:06:54;;;;;;;;;;;;;;;19.21;42.15;100317.00;5070513;28;19946;-78
2023/10/04 08:09:19;;;;;;;;;;;;;;;19.29;41.76;100312.22;5071134;28;19920;-78
2023/10/04 08:11:45;;;;;;;;;;;;;;;19.39;41.88;100310.94;5070719;28;20312;-78
2023/10/04 08:14:10;;;;;;;;;;;;;;;19.51;41.46;100309.19;5070397;28;19923;-78
2023/10/04 08:16:36;;;;;;;;;;;;;;;19.60;41.40;100306.06;5062995;28;19924;-78
2023/10/04 08:19:03;;;;;;;;;;;;;;;19.71;41.09;100311.75;5070982;28;20398;-78
2023/10/04 08:21:29;;;;;;;;;;;;;;;19.79;41.01;100308.81;5070824;28;19920;-78
2023/10/04 08:23:54;;;;;;;;;;;;;;;19.86;40.99;100304.19;5066073;28;19939;-78
2023/10/04 08:26:20;;;;;;;;;;;;;;;19.99;40.85;100304.06;5070403;28;19920;-78
2023/10/04 08:28:46;;;;;;;;;;;;;;;20.13;40.90;100296.75;5069697;28;19923;-77
2023/10/04 08:31:13;;;;;;;;;;;;;;;20.21;40.46;100293.78;5071764;28;20023;-78
2023/10/04 08:33:39;;;;;;;;;;;;;;;20.31;40.41;100286.03;5071801;28;20006;-78
2023/10/04 08:36:10;;;;;;;;;;;;;;;20.40;39.96;100283.91;5068893;28;19930;-76
2023/10/04 08:38:36;;;;;;;;;;;;;;;20.45;40.12;100282.19;5072276;28;20381;-79
2023/10/04 08:41:02;;;;;;;;;;;;;;;20.58;39.73;100283.88;5068600;28;19936;-78
2023/10/04 08:43:27;;;;;;;;;;;;;;;20.70;39.80;100276.72;5066514;28;19917;-78
2023/10/04 08:45:54;;;;;;;;;;;;;;;20.79;39.41;100272.66;5059915;28;19916;-77
2023/10/04 08:48:21;;;;;;;;;;;;;;;20.93;39.15;100267.97;5074189;28;20408;-77
2023/10/04 08:50:49;;;;;;;;;;;;;;;21.06;39.22;100272.34;5067909;28;19954;-77
2023/10/04 08:53:29;;;;;;;;;;;;;;;21.13;38.99;100271.19;5064295;28;19948;-77
2023/10/04 08:55:59;;;;;;;;;;;;;;;21.25;38.72;100264.00;5069682;28;19958;-79
2023/10/04 08:58:24;;;;;;;;;;;;;;;21.38;38.69;100262.16;5070358;28;19975;-77
2023/10/04 09:00:50;;;;;;;;;;;;;;;21.48;38.26;100257.03;5071165;28;20007;-78
2023/10/04 09:03:18;;;;;;;;;;;;;;;21.56;37.74;100260.22;5070247;28;19920;-77
2023/10/04 09:05:46;;;;;;;;;;;;;;;21.66;38.36;100259.66;5056927;28;19924;-78
2023/10/04 09:08:12;;;;;;;;;;;;;;;21.81;37.85;100264.56;5067368;28;20011;-78
2023/10/04 09:10:39;;;;;;;;;;;;;;;21.96;37.71;100262.22;5070947;28;19916;-77
2023/10/04 09:13:04;;;;;;;;;;;;;;;22.03;36.29;100262.94;5070954;28;19920;-78
2023/10/04 09:15:30;;;;;;;;;;;;;;;22.10;37.27;100255.56;5062931;28;19916;-76
2023/10/04 09:17:57;;;;;;;;;;;;;;;22.25;36.92;100257.75;5068414;28;19916;-77
2023/10/04 09:20:32;;;;;;;;;;;;;;;22.38;36.79;100257.53;5063810;28;19975;-79
2023/10/04 09:23:02;;;;;;;;;;;;;;;22.57;36.88;100260.88;5060517;28;19917;-78
2023/10/04 09:25:36;;;;;;;;;;;;;;;22.74;36.50;100253.66;5060436;28;19924;-76
2023/10/04 09:28:04;;;;;;;;;;;;;;;22.90;34.91;100251.28;5069824;28;21161;-76
2023/10/04 09:30:29;;;;;;;;;;;;;;;22.89;36.03;100245.09;5070585;28;20428;-77
2023/10/04 09:32:55;;;;;;;;;;;;;;;23.00;36.27;100260.38;5073766;28;19951;-78
2023/10/04 09:35:21;;;;;;;;;;;;;;;23.10;35.55;100249.00;5074557;28;20312;-78
2023/10/04 09:37:47;;;;;;;;;;;;;;;23.28;36.06;100246.06;5073198;28;19916;-78
2023/10/04 09:40:13;;;;;;;;;;;;;;;23.48;35.18;100239.38;5073485;28;20377;-79
2023/10/04 09:42:45;;;;;;;;;;;;;;;23.64;34.64;100238.56;5074343;28;19912;-79
2023/10/04 09:45:10;;;;;;;;;;;;;;;23.83;34.96;100236.44;5071563;28;19942;-76
2023/10/04 09:47:38;;;;;;;;;;;;;;;24.01;33.79;100236.16;5074018;28;19917;-78
2023/10/04 09:50:09;;;;;;;;;;;;;;;24.06;32.61;100226.25;5072530;28;19934;-77
2023/10/04 09:52:37;;;;;;;;;;;;;;;24.17;34.12;100223.69;5073329;28;20450;-78
2023/10/04 09:55:05;;;;;;;;;;;;;;;24.37;34.08;100229.34;5072569;28;19949;-77
2023/10/04 09:57:32;;;;;;;;;;;;;;;24.58;34.15;100222.34;5074035;28;20049;-76
2023/10/04 09:59:59;;;;;;;;;;;;;;;24.81;32.54;100227.44;5074216;28;19912;-78
2023/10/04 10:02:30;;;;;;;;;;;;;;;24.86;32.48;100223.97;5071974;28;19996;-78
2023/10/04 10:04:56;;;;;;;;;;;;;;;24.96;33.11;100214.06;5068643;28;19921;-77
2023/10/04 10:07:25;;;;;;;;;;;;;;;25.07;31.63;100220.41;5067196;28;19917;-78
2023/10/04 10:09:59;;;;;;;;;;;;;;;25.12;32.75;100223.16;5072874;28;20409;-77
2023/10/04 10:12:29;;;;;;;;;;;;;;;25.12;30.75;100214.25;5074021;28;19940;-76
2023/10/04 10:14:55;;;;;;;;;;;;;;;25.09;31.86;100212.88;5073936;28;20309;-78
2023/10/04 10:17:20;;;;;;;;;;;;;;;25.24;30.71;100202.19;5066917;28;19923;-79
2023/10/04 10:19:46;;;;;;;;;;;;;;;25.34;32.24;100205.00;5064582;28;19991;-76
2023/10/04 10:22:15;;;;;;;;;;;;;;;25.56;31.86;100204.88;5072445;28;19923;-76
2023/10/04 10:24:45;;;;;;;;;;;;;;;25.64;30.84;100204.38;5072949;28;19920;-76
2023/10/04 10:27:13;;;;;;;;;;;;;;;25.80;31.96;100201.81;5073658;28;19999;-76
2023/10/04 10:29:40;;;;;;;;;;;;;;;26.00;31.58;100199.19;5069108;28;19978;-78
2023/10/04 10:32:12;;;;;;;;;;;;;;;26.12;30.14;100197.13;5062809;28;19943;-78
2023/10/04 10:34:38;;;;;;;;;;;;;;;26.24;30.41;100194.19;5063489;28;19917;-77
2023/10/04 10:37:14;;;;;;;;;;;;;;;26.31;30.12;100192.03;5057195;28;20024;-77
2023/10/04 10:39:46;;;;;;;;;;;;;;;26.34;30.00;100180.72;5064339;28;19995;-77
2023/10/04 10:42:12;;;;;;;;;;;;;;;26.43;30.21;100173.69;5061979;28;19927;-77
2023/10/04 10:44:39;;;;;;;;;;;;;;;26.59;29.81;100172.66;5071650;28;19974;-78
2023/10/04 10:47:12;;;;;;;;;;;;;;;26.75;30.12;100165.34;5070964;28;20420;-76
2023/10/04 10:49:40;;;;;;;;;;;;;;;26.86;29.02;100171.63;5068224;28;20503;-77
2023/10/04 10:52:23;;;;;;;;;;;;;;;26.96;29.88;100168.09;5071691;28;19917;-77
2023/10/04 10:54:49;;;;;;;;;;;;;;;27.15;29.90;100161.88;5062825;28;19920;-77
2023/10/04 10:57:15;;;;;;;;;;;;;;;27.22;29.09;100167.84;5064846;28;19912;-77
2023/10/04 10:59:40;;;;;;;;;;;;;;;27.32;29.36;100155.38;5062134;28;20024;-77
2023/10/04 11:02:06;;;;;;;;;;;;;;;27.45;29.16;100157.50;5072270;28;19952;-77
2023/10/04 11:04:31;;;;;;;;;;;;;;;27.54;28.58;100156.72;5065357;28;20409;-78
2023/10/04 11:06:57;;;;;;;;;;;;;;;27.64;29.38;100157.78;5072680;28;20000;-77
2023/10/04 11:09:22;;;;;;;;;;;;;;;27.72;28.43;100157.22;5066611;28;19982;-77
2023/10/04 11:11:48;;;;;;;;;;;;;;;27.80;28.68;100148.53;5060114;28;20309;-76
2023/10/04 11:14:16;;;;;;;;;;;;;;;27.95;26.93;100150.34;5071394;28;20282;-77
2023/10/04 11:16:41;;;;;;;;;;;;;;;28.03;28.19;100145.16;5072168;28;19934;-77
2023/10/04 11:19:07;;;;;;;;;;;;;;;28.12;28.68;100148.09;5058881;28;20003;-76
2023/10/04 11:21:32;;;;;;;;;;;;;;;28.20;28.53;100147.53;5067898;28;20328;-76
2023/10/04 11:24:01;;;;;;;;;;;;;;;28.22;28.42;100134.47;5058150;28;19955;-77
2023/10/04 11:26:27;;;;;;;;;;;;;;;28.26;27.94;100137.50;5050872;28;19923;-77
2023/10/04 11:28:53;;;;;;;;;;;;;;;28.23;28.19;100136.13;5063935;28;20015;-76
2023/10/04 11:31:18;;;;;;;;;;;;;;;28.24;28.39;100126.91;5070674;28;19912;-77
2023/10/04 11:33:50;;;;;;;;;;;;;;;28.18;27.88;100127.97;5062108;28;20400;-77
2023/10/04 11:36:19;;;;;;;;;;;;;;;28.01;28.48;100119.38;5070593;28;20403;-75
2023/10/04 11:38:47;;;;;;;;;;;;;;;27.83;27.26;100128.97;5070913;28;19917;-75
2023/10/04 11:41:13;;;;;;;;;;;;;;;27.67;27.42;100130.94;5065571;28;20401;-75
2023/10/04 11:43:38;;;;;;;;;;;;;;;27.52;28.43;100125.53;5065917;28;19975;-78
2023/10/04 11:46:03;;;;;;;;;;;;;;;27.40;28.71;100124.97;5064539;28;19921;-76
2023/10/04 11:48:29;;;;;;;;;;;;;;;27.25;28.26;100120.41;5070753;28;19924;-77
2023/10/04 11:50:54;;;;;;;;;;;;;;;27.10;30.19;100120.41;5054000;28;19923;-76
2023/10/04 11:53:31;;;;;;;;;;;;;;;26.95;29.68;100109.56;5061013;28;19917;-77
2023/10/04 11:55:58;;;;;;;;;;;;;;;26.81;29.11;100109.31;5070472;28;19916;-77
2023/10/04 11:58:23;;;;;;;;;;;;;;;26.66;27.99;100111.97;5051632;28;20421;-77
2023/10/04 12:01:01;;;;;;;;;;;;;;;26.52;29.13;100107.09;5059827;28;19924;-77
2023/10/04 12:03:26;;;;;;;;;;;;;;;26.42;30.21;100100.84;5070369;28;19920;-77
2023/10/04 12:05:53;;;;;;;;;;;;;;;26.30;29.90;100098.38;5064885;28;20468;-75
2023/10/04 12:08:19;;;;;;;;;;;;;;;26.19;29.70;100102.13;5064946;28;19995;-75
2023/10/04 12:10:46;;;;;;;;;;;;;;;26.08;30.47;100090.47;5051328;28;19916;-78
2023/10/04 12:13:13;;;;;;;;;;;;;;;26.03;29.63;100086.94;5055095;28;19936;-76
2023/10/04 12:15:39;;;;;;;;;;;;;;;25.97;29.69;100078.78;5059811;28;20015;-76
2023/10/04 12:18:06;;;;;;;;;;;;;;;25.92;29.92;100086.88;5066806;28;20011;-77
2023/10/04 12:20:35;;;;;;;;;;;;;;;25.88;30.44;100083.06;5067660;28;20306;-77
2023/10/04 12:23:01;;;;;;;;;;;;;;;25.82;30.29;100083.31;5057231;28;19913;-77
2023/10/04 12:25:28;;;;;;;;;;;;;;;25.81;30.87;100079.00;5053708;28;19928;-77
2023/10/04 12:27:53;;;;;;;;;;;;;;;25.77;30.48;100072.47;5062730;28;20022;-77
2023/10/04 12:30:20;;;;;;;;;;;;;;;25.75;31.07;100069.22;5064043;28;20000;-77
2023/10/04 12:32:49;;;;;;;;;;;;;;;25.76;30.73;100073.56;5072121;28;19920;-77
2023/10/04 12:35:14;;;;;;;;;;;;;;;25.75;31.10;100069.22;5073440;28;19916;-76